Airfield :
LOGIN :

Register | Disclaimer

   EN    FR    IT 

 










Legend :    VFR   Marginal VFR   IFR   Intensive IFR   Very Intensive IFR
Visi :
Ceiling :
>= 8 km
>= 3000ft
5 to 8 km
1000 to 3000 ft
1500m to 5 km
500 to 1000 ft
800 to 1500m
200 to 500 ft
< 800m
< 200 ft
Symbols :   Thunderstorms  Fog  Heavy snow  Heavy precipitations  Wind > 20 kt
SIGMETs :     Misc.  Thunderstorms  Icing  Turbulence  Mountain Waves  Volcanic Ashes






- Airport Elevation : 423 ft
- IATA code : PIS


LFBI - Poitiers

CURRENT METAR :
  • 272330Z AUTO 11003KT CAVOK 08/07 Q1013 TEMPO 3000 BR

EXPIRED METARs :
  • 272300Z AUTO 10003KT 9000 NSC 08/07 Q1013 TEMPO 3000 BR
  • 272230Z AUTO 09003KT 9000 NSC 09/07 Q1013 TEMPO 3000 BR
  • 272200Z AUTO 11003KT CAVOK 09/07 Q1013 TEMPO 3000 BR
  • 272130Z AUTO VRB02KT CAVOK 10/07 Q1013 TEMPO 3000 BR
  • 272100Z AUTO 10004KT CAVOK 10/08 Q1013 TEMPO 3000 BR

TAF TAF LFBI
Valid from the 28 at 00:00 until the 29 at 00:00 UTC


272300Z 2800/2824 10005KT CAVOK
TEMPO 2800/2806 3000 BR
PROB40
TEMPO 2802/2806 0500 FG VV///
BECMG 2809/2811 05010KT



MET'MAP, your aeronautical weather chart ! - Copyright ORBIFLY December 2007 - Disclaimer

ORBIFLY MET'MAP TEAM :

Programming & Development : Alexandra Zaïnal
Concept & original design : Baudouin d'Aumeries
Assistance for programming : Marc-Olivier Méhu
Technical & hardware support : Manuel Goepfert

Contact : metmap@orbifly.com




SOURCES & CREDITS :

   NOAA